createdAt,value
2022-07-31T00:04:52.847Z,16.70
2022-07-31T00:10:54.807Z,16.80
2022-07-31T00:16:57.493Z,16.80
2022-07-31T00:23:00.013Z,16.90
2022-07-31T00:29:01.992Z,17.00
2022-07-31T00:35:04.569Z,17.00
2022-07-31T00:41:06.926Z,17.00
2022-07-31T00:47:09.164Z,17.00
2022-07-31T00:53:11.202Z,17.00
2022-07-31T00:59:13.193Z,17.00
2022-07-31T01:05:18.960Z,17.10
2022-07-31T01:12:06.083Z,17.10
2022-07-31T01:18:10.599Z,16.90
2022-07-31T01:24:46.258Z,16.90
2022-07-31T01:31:24.161Z,17.00
2022-07-31T01:37:50.699Z,17.00
2022-07-31T01:43:57.068Z,16.90
2022-07-31T01:50:01.364Z,16.90
2022-07-31T01:56:04.497Z,16.90
2022-07-31T02:02:06.859Z,16.90
2022-07-31T02:08:14.986Z,16.80
2022-07-31T02:14:19.529Z,16.70
2022-07-31T02:20:23.570Z,16.60
2022-07-31T02:26:27.614Z,16.50
2022-07-31T02:32:32.088Z,16.30
2022-07-31T02:38:36.155Z,16.20
2022-07-31T02:44:38.668Z,16.10
2022-07-31T02:50:41.837Z,16.00
2022-07-31T02:56:46.341Z,15.90
2022-07-31T03:02:52.391Z,15.90
2022-07-31T03:08:54.401Z,15.80
2022-07-31T03:14:57.758Z,15.80
2022-07-31T03:20:59.858Z,15.70
2022-07-31T03:27:02.143Z,15.80
2022-07-31T03:33:04.284Z,15.80
2022-07-31T03:39:06.332Z,15.70
2022-07-31T03:45:10.922Z,15.60
2022-07-31T03:51:13.786Z,15.60
2022-07-31T03:57:17.631Z,15.50
2022-07-31T04:03:21.448Z,15.40
2022-07-31T04:09:23.558Z,15.50
2022-07-31T04:15:25.719Z,15.40
2022-07-31T04:21:27.874Z,15.40
2022-07-31T04:27:29.900Z,15.30
2022-07-31T04:33:31.947Z,15.30
2022-07-31T04:39:34.672Z,15.50
2022-07-31T04:45:36.726Z,15.70
2022-07-31T04:51:39.092Z,15.90
2022-07-31T04:57:41.074Z,16.00
2022-07-31T05:03:43.028Z,16.30
2022-07-31T05:09:45.032Z,16.30
2022-07-31T05:15:47.033Z,16.30
2022-07-31T05:21:53.636Z,16.50
2022-07-31T05:27:56.624Z,16.60
2022-07-31T05:33:59.221Z,16.60
2022-07-31T05:40:01.599Z,16.70
2022-07-31T05:46:05.774Z,16.90
2022-07-31T05:52:07.778Z,17.10
2022-07-31T05:58:14.788Z,17.20
2022-07-31T06:04:18.513Z,17.30
2022-07-31T06:10:20.733Z,17.60
2022-07-31T06:16:22.727Z,18.00
2022-07-31T06:22:24.718Z,18.20
2022-07-31T06:28:33.826Z,18.30
2022-07-31T06:34:49.043Z,18.50
2022-07-31T06:40:51.563Z,18.80
2022-07-31T06:46:53.586Z,19.10
2022-07-31T06:52:55.664Z,19.40
2022-07-31T06:58:58.023Z,19.80
2022-07-31T07:05:05.811Z,20.00
2022-07-31T07:11:12.144Z,20.10
2022-07-31T07:17:14.496Z,20.50
2022-07-31T07:23:16.717Z,20.90
2022-07-31T07:29:18.757Z,21.60
2022-07-31T07:35:21.969Z,21.80
2022-07-31T07:41:25.652Z,22.00
2022-07-31T07:47:27.645Z,22.20
2022-07-31T07:53:49.711Z,22.60
2022-07-31T07:59:51.795Z,22.70
2022-07-31T08:05:53.779Z,23.10
2022-07-31T08:11:56.130Z,23.20
2022-07-31T08:17:58.362Z,23.40
2022-07-31T08:24:00.592Z,23.70
2022-07-31T08:30:02.823Z,23.90
2022-07-31T08:36:08.969Z,24.30
2022-07-31T08:42:11.091Z,24.60
2022-07-31T08:48:14.564Z,25.20
2022-07-31T08:54:19.024Z,26.40
2022-07-31T09:00:22.746Z,26.70
2022-07-31T09:06:24.913Z,26.60
2022-07-31T09:12:33.498Z,26.60
2022-07-31T09:18:36.373Z,27.60
2022-07-31T09:24:39.845Z,28.10
2022-07-31T09:30:56.148Z,28.30
2022-07-31T09:37:18.601Z,28.10
2022-07-31T09:43:24.577Z,28.10
2022-07-31T09:49:35.254Z,27.30
2022-07-31T09:55:37.321Z,26.70
2022-07-31T10:01:41.292Z,26.50
2022-07-31T10:08:51.671Z,26.30
2022-07-31T10:14:56.203Z,26.30
2022-07-31T10:21:02.133Z,25.90
2022-07-31T10:27:09.112Z,25.80
2022-07-31T10:33:40.691Z,25.70
2022-07-31T10:39:42.066Z,26.50
2022-07-31T10:45:53.447Z,28.10
2022-07-31T10:51:55.643Z,28.90
2022-07-31T10:58:19.806Z,28.80
2022-07-31T11:04:34.056Z,28.30
2022-07-31T11:10:36.228Z,28.90
2022-07-31T11:16:53.251Z,29.10
2022-07-31T11:23:01.224Z,29.30
2022-07-31T11:30:00.380Z,29.10
2022-07-31T11:35:31.517Z,28.40
2022-07-31T11:41:44.004Z,29.00
2022-07-31T11:48:12.565Z,28.70
2022-07-31T11:54:11.045Z,28.60
2022-07-31T12:00:26.835Z,29.20
2022-07-31T12:06:34.867Z,29.00
2022-07-31T12:12:40.902Z,28.70
2022-07-31T12:18:50.691Z,28.90
2022-07-31T12:25:08.594Z,29.30
2022-07-31T12:31:11.042Z,29.10
2022-07-31T12:37:17.810Z,29.20
2022-07-31T12:43:24.712Z,29.60
2022-07-31T12:49:26.699Z,29.30
2022-07-31T12:55:33.264Z,28.90
2022-07-31T13:01:36.713Z,28.30
2022-07-31T13:07:39.063Z,28.20
2022-07-31T13:13:41.143Z,28.40
2022-07-31T13:19:43.271Z,28.10
2022-07-31T13:25:45.234Z,28.10
2022-07-31T13:31:47.261Z,27.90
2022-07-31T13:37:49.271Z,27.90
2022-07-31T13:43:59.606Z,28.10
2022-07-31T13:50:02.760Z,28.10
2022-07-31T13:56:05.306Z,28.10
2022-07-31T14:02:07.754Z,28.40
2022-07-31T14:08:33.130Z,29.00
2022-07-31T14:14:31.928Z,28.90
2022-07-31T14:20:34.879Z,28.70
2022-07-31T14:26:36.881Z,28.50
2022-07-31T14:32:39.382Z,27.90
2022-07-31T14:38:41.391Z,27.50
2022-07-31T14:44:43.456Z,27.60
2022-07-31T14:50:45.428Z,27.40
2022-07-31T14:57:01.210Z,27.20
2022-07-31T15:03:03.890Z,27.10
2022-07-31T15:09:06.351Z,27.00
2022-07-31T15:15:09.209Z,26.80
2022-07-31T15:21:17.335Z,26.70
2022-07-31T15:27:21.979Z,26.60
2022-07-31T15:33:24.724Z,26.60
2022-07-31T15:39:26.714Z,26.50
2022-07-31T15:45:28.842Z,26.10
2022-07-31T15:51:30.812Z,25.60
2022-07-31T15:57:33.271Z,25.20
2022-07-31T16:03:51.159Z,24.80
2022-07-31T16:10:03.472Z,24.60
2022-07-31T16:16:17.552Z,24.20
2022-07-31T16:22:19.539Z,23.90
2022-07-31T16:28:21.959Z,23.60
2022-07-31T16:34:24.647Z,23.50
2022-07-31T16:40:31.032Z,23.30
2022-07-31T16:46:33.726Z,23.30
2022-07-31T16:52:35.902Z,23.20
2022-07-31T16:58:38.148Z,23.20
2022-07-31T17:04:40.187Z,23.20
2022-07-31T17:10:42.240Z,23.10
2022-07-31T17:16:47.951Z,23.00
2022-07-31T17:22:54.544Z,23.00
2022-07-31T17:28:57.828Z,23.00
2022-07-31T17:34:59.910Z,23.00
2022-07-31T17:41:03.226Z,23.20
2022-07-31T17:47:07.830Z,24.70
2022-07-31T17:53:10.272Z,25.30
2022-07-31T17:59:16.149Z,25.80
2022-07-31T18:05:18.244Z,26.40
2022-07-31T18:11:21.507Z,26.50
2022-07-31T18:17:23.625Z,26.10
2022-07-31T18:23:29.433Z,25.10
2022-07-31T18:29:37.595Z,24.20
2022-07-31T18:35:41.151Z,23.40
2022-07-31T18:41:48.250Z,22.90
2022-07-31T18:47:51.344Z,22.60
2022-07-31T18:53:54.357Z,22.20
2022-07-31T18:59:56.880Z,21.90
2022-07-31T19:05:59.018Z,21.70
2022-07-31T19:12:06.203Z,21.50
2022-07-31T19:18:10.090Z,21.30
2022-07-31T19:24:15.454Z,21.10
2022-07-31T19:30:17.438Z,21.10
2022-07-31T19:36:19.424Z,21.00
2022-07-31T19:42:21.514Z,20.90
2022-07-31T19:48:23.651Z,20.90
2022-07-31T19:54:25.766Z,20.80
2022-07-31T20:00:27.827Z,20.80
2022-07-31T20:06:29.850Z,20.70
2022-07-31T20:12:31.881Z,20.70
2022-07-31T20:18:34.007Z,20.60
2022-07-31T20:24:36.044Z,20.50
2022-07-31T20:30:38.003Z,20.50
2022-07-31T20:36:40.677Z,20.40
2022-07-31T20:42:42.625Z,20.30
2022-07-31T20:48:45.405Z,20.30
2022-07-31T20:54:47.510Z,20.30
2022-07-31T21:00:51.915Z,20.20
2022-07-31T21:06:54.075Z,20.30
2022-07-31T21:12:56.170Z,20.30
2022-07-31T21:18:58.195Z,20.30
2022-07-31T21:25:02.046Z,20.40
2022-07-31T21:31:05.443Z,20.40
2022-07-31T21:37:08.023Z,20.30
2022-07-31T21:43:10.894Z,20.20
2022-07-31T21:49:20.314Z,20.20
2022-07-31T21:55:22.372Z,20.20
2022-07-31T22:01:24.530Z,20.10
2022-07-31T22:07:32.572Z,20.10
2022-07-31T22:13:34.621Z,20.10
2022-07-31T22:19:37.053Z,20.10
2022-07-31T22:25:48.920Z,20.00
2022-07-31T22:31:54.085Z,19.90
2022-07-31T22:37:57.050Z,19.80
2022-07-31T22:44:13.357Z,19.80
2022-07-31T22:50:16.560Z,19.70
2022-07-31T22:56:19.195Z,19.70
2022-07-31T23:02:21.464Z,19.80
2022-07-31T23:08:23.570Z,19.70
2022-07-31T23:14:25.962Z,19.70
2022-07-31T23:20:28.126Z,19.70
2022-07-31T23:26:30.196Z,19.60
2022-07-31T23:32:32.224Z,19.70
2022-07-31T23:38:34.217Z,19.70
2022-07-31T23:44:40.044Z,19.50
2022-07-31T23:50:43.350Z,19.60
2022-07-31T23:56:45.403Z,19.60
